Time;durP1;ratioP1;P1;durP2;ratioP2;P2;SDS_P1;SDS_P2;PMS_P1;PMS_P2;Temp;Humidity;BMP_temperature;BMP_pressure;BME280_temperature;BME280_humidity;BME280_pressure;Samples;Min_cycle;Max_cycle;Signal;HPM_P1;HPM_P2
2022/07/22 00:02:05;;;;;;;14.60;13.30;;;22.20;1.00;;;;;;5046868;28;20188;-57
2022/07/22 00:04:31;;;;;;;12.80;11.60;;;22.20;1.00;;;;;;5043484;28;20660;-58
2022/07/22 00:06:56;;;;;;;14.00;12.70;;;22.20;1.00;;;;;;5046659;28;20195;-58
2022/07/22 00:09:22;;;;;;;14.17;12.87;;;22.10;1.00;;;;;;5048434;28;20557;-57
2022/07/22 00:11:48;;;;;;;18.10;13.37;;;22.20;1.00;;;;;;5047761;28;20305;-58
2022/07/22 00:14:13;;;;;;;12.53;11.50;;;22.10;1.00;;;;;;5046648;28;20188;-58
2022/07/22 00:16:39;;;;;;;13.23;12.00;;;22.10;1.00;;;;;;5046790;28;20541;-57
2022/07/22 00:19:04;;;;;;;13.67;12.47;;;22.10;1.00;;;;;;5047813;28;20203;-58
2022/07/22 00:21:30;;;;;;;13.57;12.27;;;22.10;1.00;;;;;;5049333;28;20550;-58
2022/07/22 00:23:56;;;;;;;12.90;11.77;;;22.10;1.00;;;;;;5047334;28;20191;-58
2022/07/22 00:26:21;;;;;;;13.30;12.10;;;22.10;1.00;;;;;;5051188;28;20192;-57
2022/07/22 00:28:47;;;;;;;14.10;12.77;;;20.80;1.00;;;;;;5050368;28;20196;-58
2022/07/22 00:31:13;;;;;;;13.80;12.50;;;22.10;1.00;;;;;;5047991;28;20338;-57
2022/07/22 00:33:38;;;;;;;13.53;12.33;;;22.10;1.00;;;;;;5049639;28;20211;-58
2022/07/22 00:36:07;;;;;;;12.60;11.60;;;22.10;1.00;;;;;;5052054;28;20207;-58
2022/07/22 00:38:33;;;;;;;13.70;12.40;;;22.00;1.00;;;;;;5049317;28;20206;-58
2022/07/22 00:40:58;;;;;;;13.20;12.00;;;22.10;1.00;;;;;;5051882;28;20508;-59
2022/07/22 00:43:24;;;;;;;14.23;12.97;;;22.10;1.00;;;;;;5050343;28;20541;-57
2022/07/22 00:45:50;;;;;;;14.07;12.77;;;22.00;1.00;;;;;;5051724;28;20192;-57
2022/07/22 00:48:15;;;;;;;14.03;12.83;;;22.10;1.00;;;;;;5050083;28;20199;-56
2022/07/22 00:50:41;;;;;;;14.60;13.13;;;22.00;1.00;;;;;;5050474;28;20469;-57
2022/07/22 00:53:07;;;;;;;14.10;12.90;;;22.00;1.00;;;;;;5051472;28;20649;-58
2022/07/22 00:55:34;;;;;;;13.97;12.63;;;22.00;1.00;;;;;;5049033;28;20190;-57
2022/07/22 00:58:01;;;;;;;14.20;12.90;;;22.00;1.00;;;;;;5050318;28;20549;-58
2022/07/22 01:00:27;;;;;;;13.60;12.50;;;21.90;1.00;;;;;;5049091;28;20470;-57
2022/07/22 01:02:53;;;;;;;14.20;13.00;;;21.90;1.00;;;;;;5051789;28;21209;-57
2022/07/22 01:05:19;;;;;;;13.83;12.70;;;21.90;1.00;;;;;;5051289;28;20613;-57
2022/07/22 01:07:45;;;;;;;14.13;12.87;;;22.00;1.00;;;;;;5049528;28;20192;-57
2022/07/22 01:10:10;;;;;;;13.43;12.33;;;21.90;1.00;;;;;;5049091;28;20457;-58
2022/07/22 01:12:36;;;;;;;14.07;12.70;;;21.80;1.00;;;;;;5050741;28;20224;-57
2022/07/22 01:15:02;;;;;;;12.53;11.33;;;21.80;1.00;;;;;;5047051;28;20630;-57
2022/07/22 01:17:28;;;;;;;14.33;13.00;;;21.80;1.00;;;;;;5049585;28;20200;-58
2022/07/22 01:19:59;;;;;;;14.00;12.67;;;21.70;1.00;;;;;;5048682;28;20491;-58
2022/07/22 01:22:26;;;;;;;14.73;13.43;;;21.60;1.00;;;;;;5050710;28;20549;-58
2022/07/22 01:24:52;;;;;;;13.33;12.00;;;21.60;1.00;;;;;;5046282;28;20463;-58
2022/07/22 01:27:17;;;;;;;14.43;13.07;;;21.60;1.00;;;;;;5050585;28;20442;-58
2022/07/22 01:29:43;;;;;;;14.50;13.13;;;21.60;1.00;;;;;;5048834;28;20238;-57
2022/07/22 01:32:09;;;;;;;15.77;14.47;;;21.60;1.00;;;;;;5049261;28;20224;-57
2022/07/22 01:34:34;;;;;;;14.23;13.03;;;21.60;1.00;;;;;;5048442;28;20284;-58
2022/07/22 01:37:00;;;;;;;14.10;12.60;;;21.60;1.00;;;;;;5050807;28;20673;-57
2022/07/22 01:39:25;;;;;;;14.93;13.53;;;21.60;1.00;;;;;;5047456;28;20285;-58
2022/07/22 01:41:51;;;;;;;13.20;11.97;;;;;;;;;;5050380;28;20695;-58
2022/07/22 01:44:17;;;;;;;13.70;12.40;;;21.50;1.00;;;;;;5049767;28;20216;-57
2022/07/22 01:46:42;;;;;;;13.90;12.60;;;21.50;1.00;;;;;;5045335;28;20847;-58
2022/07/22 01:49:08;;;;;;;14.00;12.60;;;21.40;1.00;;;;;;5050165;28;20192;-58
2022/07/22 01:51:34;;;;;;;14.50;13.30;;;21.50;1.00;;;;;;5047877;28;20215;-56
2022/07/22 01:53:59;;;;;;;14.67;13.27;;;21.50;1.00;;;;;;5046922;28;20192;-57
2022/07/22 01:56:25;;;;;;;15.43;14.03;;;21.50;1.00;;;;;;5047239;28;20219;-59
2022/07/22 01:58:50;;;;;;;14.73;13.43;;;21.40;1.00;;;;;;5050046;28;20419;-58
2022/07/22 02:01:16;;;;;;;14.60;13.23;;;21.40;1.00;;;;;;5047950;28;20248;-57
2022/07/22 02:03:42;;;;;;;13.57;12.37;;;21.40;1.00;;;;;;5048582;28;20192;-58
2022/07/22 02:06:07;;;;;;;13.83;12.53;;;21.40;1.00;;;;;;5046078;28;20226;-58
2022/07/22 02:08:33;;;;;;;14.27;12.97;;;21.40;1.00;;;;;;5043534;28;20192;-57
2022/07/22 02:10:59;;;;;;;14.03;12.73;;;21.40;1.00;;;;;;5047006;28;20305;-58
2022/07/22 02:13:24;;;;;;;15.03;13.20;;;21.30;1.00;;;;;;5047627;28;22048;-58
2022/07/22 02:15:50;;;;;;;13.60;12.43;;;21.30;1.00;;;;;;5047371;28;20203;-57
2022/07/22 02:18:18;;;;;;;14.40;13.00;;;21.20;1.00;;;;;;5049319;28;20602;-58
2022/07/22 02:20:44;;;;;;;12.97;11.83;;;21.20;1.00;;;;;;5047837;28;20242;-58
2022/07/22 02:23:13;;;;;;;13.97;12.67;;;21.00;1.00;;;;;;5048206;28;20546;-57
2022/07/22 02:25:40;;;;;;;13.53;12.33;;;21.10;1.00;;;;;;5048456;28;20963;-58
2022/07/22 02:28:06;;;;;;;13.93;12.73;;;21.20;1.00;;;;;;5051024;28;20439;-57
2022/07/22 02:30:32;;;;;;;13.53;12.33;;;21.10;1.00;;;;;;5046438;28;20503;-58
2022/07/22 02:32:58;;;;;;;14.40;13.10;;;21.10;1.00;;;;;;5049208;28;20696;-58
2022/07/22 02:35:24;;;;;;;14.87;13.40;;;21.10;1.00;;;;;;5045146;28;20446;-58
2022/07/22 02:37:50;;;;;;;14.03;12.73;;;21.00;1.00;;;;;;5049696;28;20196;-57
2022/07/22 02:40:15;;;;;;;14.40;13.03;;;21.00;1.00;;;;;;5048933;28;20485;-57
2022/07/22 02:42:45;;;;;;;13.70;12.50;;;21.00;1.00;;;;;;5047597;28;20442;-59
2022/07/22 02:45:10;;;;;;;12.93;11.73;;;21.10;1.00;;;;;;5047315;28;20477;-57
2022/07/22 02:47:46;;;;;;;14.37;13.07;;;21.00;1.00;;;;;;5049170;28;20183;-58
2022/07/22 02:50:11;;;;;;;14.90;13.60;;;20.90;1.00;;;;;;5049777;28;20273;-58
2022/07/22 02:52:37;;;;;;;12.90;11.90;;;21.00;1.00;;;;;;5048199;28;20489;-57
2022/07/22 02:55:03;;;;;;;15.67;14.17;;;20.90;1.00;;;;;;5043668;28;20192;-58
2022/07/22 02:57:28;;;;;;;14.33;13.00;;;20.90;1.00;;;;;;5049232;28;20279;-59
2022/07/22 02:59:54;;;;;;;14.77;13.40;;;20.90;1.00;;;;;;5046798;28;20549;-57
2022/07/22 03:02:20;;;;;;;14.67;13.40;;;20.90;1.00;;;;;;5047292;28;20626;-58
2022/07/22 03:04:45;;;;;;;13.40;12.20;;;20.90;1.00;;;;;;5048100;28;20203;-57
2022/07/22 03:07:11;;;;;;;14.33;13.03;;;20.90;1.00;;;;;;5048241;28;20192;-58
2022/07/22 03:09:36;;;;;;;14.73;13.43;;;20.90;1.00;;;;;;5046694;28;20255;-58
2022/07/22 03:12:02;;;;;;;14.97;13.50;;;20.90;1.00;;;;;;5049582;28;20176;-57
2022/07/22 03:14:27;;;;;;;16.03;14.57;;;20.90;1.00;;;;;;5047488;28;20180;-58
2022/07/22 03:16:53;;;;;;;14.50;13.00;;;20.90;1.00;;;;;;5047240;28;20617;-58
2022/07/22 03:19:19;;;;;;;14.10;12.70;;;20.90;1.00;;;;;;5049032;28;20242;-58
2022/07/22 03:21:44;;;;;;;14.90;13.60;;;20.90;1.00;;;;;;5051183;28;20212;-57
2022/07/22 03:24:10;;;;;;;15.90;14.20;;;20.90;1.00;;;;;;5048152;28;20263;-58
2022/07/22 03:26:35;;;;;;;15.20;13.70;;;21.00;1.00;;;;;;5046262;28;20184;-59
2022/07/22 03:29:01;;;;;;;15.37;13.97;;;20.90;1.00;;;;;;5046787;28;20191;-58
2022/07/22 03:31:27;;;;;;;14.33;12.93;;;20.90;1.00;;;;;;5048884;28;20184;-58
2022/07/22 03:33:53;;;;;;;14.43;13.13;;;20.90;1.00;;;;;;5048052;28;20456;-58
2022/07/22 03:36:18;;;;;;;14.97;13.67;;;20.90;1.00;;;;;;5049175;28;20196;-59
2022/07/22 03:38:44;;;;;;;17.00;14.77;;;20.80;1.00;;;;;;5047525;28;20514;-58
2022/07/22 03:41:09;;;;;;;15.07;13.60;;;20.80;1.00;;;;;;5048422;28;20361;-58
2022/07/22 03:43:36;;;;;;;15.27;13.77;;;20.90;1.00;;;;;;5048454;28;20192;-57
2022/07/22 03:46:02;;;;;;;13.30;12.20;;;23.60;1.00;;;;;;5045796;28;20187;-59
2022/07/22 03:48:28;;;;;;;13.23;12.03;;;;;;;;;;5048039;28;20934;-57
2022/07/22 03:50:53;;;;;;;13.27;11.97;;;20.80;1.00;;;;;;5045462;28;20199;-57
2022/07/22 03:53:20;;;;;;;14.30;13.10;;;20.80;1.00;;;;;;5048751;28;20451;-56
2022/07/22 03:55:45;;;;;;;14.67;12.27;;;20.70;1.00;;;;;;5048842;28;20291;-57
2022/07/22 03:58:11;;;;;;;13.57;12.30;;;20.70;1.00;;;;;;5051785;28;21007;-58
2022/07/22 04:00:37;;;;;;;15.10;13.53;;;20.60;1.00;;;;;;5051583;28;20318;-57
2022/07/22 04:03:03;;;;;;;14.30;13.00;;;20.70;1.00;;;;;;5052235;28;20623;-57
2022/07/22 04:05:28;;;;;;;14.30;13.10;;;20.70;1.00;;;;;;5049083;28;20222;-58
2022/07/22 04:07:54;;;;;;;15.30;13.90;;;20.80;1.00;;;;;;5051281;28;20285;-58
2022/07/22 04:10:20;;;;;;;14.40;12.43;;;20.90;1.00;;;;;;5051379;28;20198;-58
2022/07/22 04:12:46;;;;;;;14.73;13.23;;;21.10;1.00;;;;;;5051282;28;20191;-58
2022/07/22 04:15:11;;;;;;;15.00;13.70;;;21.10;1.00;;;;;;5050643;28;20464;-56
2022/07/22 04:17:37;;;;;;;13.70;12.40;;;21.10;1.00;;;;;;5052129;28;20207;-57
2022/07/22 04:20:04;;;;;;;16.13;13.87;;;21.20;1.00;;;;;;5050351;28;20810;-58
2022/07/22 04:22:30;;;;;;;15.63;14.07;;;21.20;1.00;;;;;;5052176;28;20264;-58
2022/07/22 04:24:55;;;;;;;20.40;14.87;;;21.20;1.00;;;;;;5051585;28;20450;-58
2022/07/22 04:27:21;;;;;;;14.90;13.47;;;21.40;1.00;;;;;;5051349;28;20219;-58
2022/07/22 04:29:47;;;;;;;15.47;13.40;;;21.50;1.00;;;;;;5051261;28;20535;-58
2022/07/22 04:32:13;;;;;;;15.60;14.10;;;21.50;1.00;;;;;;5051809;28;20493;-58
2022/07/22 04:34:38;;;;;;;16.00;14.40;;;21.60;1.00;;;;;;5050234;28;20204;-58
2022/07/22 04:37:04;;;;;;;15.87;14.57;;;;;;;;;;5050641;28;20642;-59
2022/07/22 04:39:30;;;;;;;14.63;13.33;;;21.70;1.00;;;;;;5052030;28;20223;-58
2022/07/22 04:41:55;;;;;;;16.07;14.37;;;21.70;1.00;;;;;;5051651;28;20541;-58
2022/07/22 04:44:21;;;;;;;15.50;14.20;;;21.70;1.00;;;;;;5050834;28;20192;-58
2022/07/22 04:46:47;;;;;;;15.87;14.47;;;21.60;1.00;;;;;;5050034;28;20629;-58
2022/07/22 04:49:12;;;;;;;15.87;14.27;;;21.60;1.00;;;;;;5050768;28;20843;-58
2022/07/22 04:51:38;;;;;;;14.10;12.70;;;21.70;1.00;;;;;;5051764;28;20196;-58
2022/07/22 04:54:04;;;;;;;14.40;13.10;;;21.70;1.00;;;;;;5050865;28;20242;-58
2022/07/22 04:56:29;;;;;;;14.73;13.33;;;21.80;1.00;;;;;;5049955;28;20222;-57
2022/07/22 04:58:55;;;;;;;13.97;12.77;;;21.90;1.00;;;;;;5051143;28;20221;-56
2022/07/22 05:01:21;;;;;;;15.40;13.80;;;22.00;1.00;;;;;;5049566;28;20211;-57
2022/07/22 05:03:46;;;;;;;15.10;13.63;;;22.30;1.00;;;;;;5055712;28;20668;-56
2022/07/22 05:06:12;;;;;;;15.27;13.83;;;22.30;1.00;;;;;;5049361;28;20808;-56
2022/07/22 05:08:38;;;;;;;15.77;14.20;;;22.30;1.00;;;;;;5051510;28;20192;-56
2022/07/22 05:11:06;;;;;;;14.13;12.80;;;22.50;1.00;;;;;;5050627;28;20183;-57
2022/07/22 05:13:32;;;;;;;14.90;13.50;;;22.70;1.00;;;;;;5049448;28;20587;-57
2022/07/22 05:16:04;;;;;;;12.83;11.83;;;22.70;1.00;;;;;;5058421;28;20571;-56
2022/07/22 05:18:30;;;;;;;15.63;14.23;;;22.80;1.00;;;;;;5053786;28;20215;-56
2022/07/22 05:20:55;;;;;;;13.63;12.33;;;22.90;1.00;;;;;;5047598;28;20990;-57
2022/07/22 05:23:21;;;;;;;17.40;12.70;;;22.90;1.00;;;;;;5050001;28;20329;-56
2022/07/22 05:25:46;;;;;;;13.70;12.50;;;23.00;1.00;;;;;;5050201;28;20565;-56
2022/07/22 05:28:12;;;;;;;12.93;11.43;;;23.20;1.00;;;;;;5047710;28;20330;-56
2022/07/22 05:30:38;;;;;;;12.30;11.10;;;23.40;1.00;;;;;;5055525;28;20213;-55
2022/07/22 05:33:03;;;;;;;12.67;11.47;;;23.70;1.00;;;;;;5058565;28;20228;-57
2022/07/22 05:35:29;;;;;;;11.00;10.00;;;23.80;1.00;;;;;;5050656;28;20199;-55
2022/07/22 05:37:54;;;;;;;9.73;8.73;;;23.90;1.00;;;;;;5049856;28;20262;-57
2022/07/22 05:40:20;;;;;;;9.43;8.30;;;24.10;1.00;;;;;;5050465;28;20210;-56
2022/07/22 05:42:45;;;;;;;11.00;9.00;;;24.10;1.00;;;;;;5051351;28;20207;-56
2022/07/22 05:45:11;;;;;;;8.93;8.03;;;24.20;1.00;;;;;;5051167;28;20190;-59
2022/07/22 05:47:37;;;;;;;7.27;6.53;;;24.30;1.00;;;;;;5049425;28;20804;-59
2022/07/22 05:50:03;;;;;;;9.10;8.13;;;24.40;1.00;;;;;;5051422;28;20188;-59
2022/07/22 05:52:28;;;;;;;8.07;7.37;;;24.30;1.00;;;;;;5050069;28;20196;-59
2022/07/22 05:54:54;;;;;;;8.70;7.90;;;;;;;;;;5049602;28;20454;-59
2022/07/22 05:57:20;;;;;;;8.43;7.20;;;24.50;1.00;;;;;;5050469;28;20285;-60
2022/07/22 05:59:45;;;;;;;7.03;6.40;;;24.40;1.00;;;;;;5050558;28;20447;-59
2022/07/22 06:02:11;;;;;;;7.03;6.23;;;24.40;1.00;;;;;;5050260;28;20188;-60
2022/07/22 06:04:37;;;;;;;6.83;6.13;;;24.40;1.00;;;;;;5048854;28;20836;-59
2022/07/22 06:07:02;;;;;;;6.73;6.07;;;24.40;1.00;;;;;;5050568;28;20249;-60
2022/07/22 06:09:28;;;;;;;7.67;6.87;;;24.60;1.00;;;;;;5051093;28;20189;-59
2022/07/22 06:11:53;;;;;;;7.33;6.63;;;24.60;1.00;;;;;;5049566;28;20192;-58
2022/07/22 06:14:19;;;;;;;7.73;6.60;;;24.70;1.00;;;;;;5050473;28;20188;-60
2022/07/22 06:16:45;;;;;;;8.00;6.07;;;24.70;1.00;;;;;;5048574;28;20811;-59
2022/07/22 06:19:10;;;;;;;7.30;6.60;;;24.60;1.00;;;;;;5050421;28;20418;-59
2022/07/22 06:21:38;;;;;;;8.90;6.73;;;24.80;1.00;;;;;;5049335;28;20204;-59
2022/07/22 06:24:04;;;;;;;7.77;6.53;;;25.00;1.00;;;;;;5048435;28;20197;-59
2022/07/22 06:26:30;;;;;;;7.70;6.10;;;25.10;1.00;;;;;;5050158;28;20942;-59
2022/07/22 06:28:55;;;;;;;7.00;6.30;;;25.30;1.00;;;;;;5050529;28;20211;-59
2022/07/22 06:31:21;;;;;;;7.33;6.60;;;25.20;1.00;;;;;;5049439;28;20196;-59
2022/07/22 06:33:46;;;;;;;7.63;6.93;;;25.10;1.00;;;;;;5049285;28;20198;-59
2022/07/22 06:36:14;;;;;;;7.80;7.10;;;;;;;;;;5048171;28;20274;-59
2022/07/22 06:38:39;;;;;;;8.63;6.20;;;25.40;1.00;;;;;;5050148;28;20511;-60
2022/07/22 06:41:05;;;;;;;12.30;7.30;;;25.50;1.00;;;;;;5049099;28;20477;-59
2022/07/22 06:43:31;;;;;;;6.83;6.23;;;25.50;1.00;;;;;;5050593;28;20336;-60
2022/07/22 06:45:56;;;;;;;7.37;6.57;;;25.50;1.00;;;;;;5049420;28;20222;-60
2022/07/22 06:48:22;;;;;;;7.63;6.73;;;25.50;1.00;;;;;;5049088;28;20550;-58
2022/07/22 06:50:48;;;;;;;8.33;5.93;;;25.50;1.00;;;;;;5048959;28;20188;-60
2022/07/22 06:53:13;;;;;;;5.80;5.30;;;25.30;1.00;;;;;;5050256;28;20214;-58
2022/07/22 06:55:39;;;;;;;6.10;5.50;;;25.40;1.00;;;;;;5050505;28;20262;-59
2022/07/22 06:58:05;;;;;;;6.67;6.17;;;25.40;1.00;;;;;;5050004;28;20584;-60
2022/07/22 07:00:30;;;;;;;6.87;6.17;;;25.50;1.00;;;;;;5049910;28;20642;-60
2022/07/22 07:03:00;;;;;;;7.73;6.00;;;25.60;1.00;;;;;;5053966;28;20581;-59
2022/07/22 07:05:27;;;;;;;6.00;5.43;;;25.60;1.00;;;;;;5048952;28;20222;-58
2022/07/22 07:07:53;;;;;;;6.30;5.70;;;25.50;1.00;;;;;;5048809;28;20542;-59
2022/07/22 07:10:18;;;;;;;6.40;5.80;;;25.60;1.00;;;;;;5047253;28;20994;-60
2022/07/22 07:12:44;;;;;;;5.13;4.70;;;25.50;1.00;;;;;;5049339;28;20199;-59
2022/07/22 07:15:11;;;;;;;8.33;5.33;;;25.50;1.00;;;;;;5049480;28;20195;-59
2022/07/22 07:17:37;;;;;;;6.60;5.40;;;25.30;1.00;;;;;;5046351;28;20250;-59
2022/07/22 07:20:03;;;;;;;6.23;5.63;;;25.30;1.00;;;;;;5048329;28;20470;-59
2022/07/22 07:22:29;;;;;;;6.30;5.70;;;25.20;1.00;;;;;;5047390;28;20940;-59
2022/07/22 07:24:55;;;;;;;6.27;5.67;;;25.10;1.00;;;;;;5048352;28;20457;-59
2022/07/22 07:27:20;;;;;;;7.33;5.80;;;25.20;1.00;;;;;;5050039;28;20191;-59
2022/07/22 07:29:46;;;;;;;8.67;5.73;;;25.10;1.00;;;;;;5049623;28;20293;-59
2022/07/22 07:32:11;;;;;;;6.03;5.50;;;25.40;1.00;;;;;;5049933;28;20242;-59
2022/07/22 07:34:38;;;;;;;6.47;5.80;;;25.70;1.00;;;;;;5049906;28;20213;-59
2022/07/22 07:37:03;;;;;;;7.30;6.60;;;25.70;1.00;;;;;;5049971;28;20184;-58
2022/07/22 07:39:29;;;;;;;8.73;6.00;;;25.40;1.00;;;;;;5048894;28;20465;-59
2022/07/22 07:41:55;;;;;;;5.40;4.90;;;25.80;1.00;;;;;;5047047;28;20219;-59
2022/07/22 07:44:20;;;;;;;6.20;5.60;;;25.80;1.00;;;;;;5049727;28;20369;-59
2022/07/22 07:46:46;;;;;;;6.77;5.87;;;25.80;1.00;;;;;;5048675;28;20717;-58
2022/07/22 07:49:12;;;;;;;6.20;5.60;;;26.00;1.00;;;;;;5050089;28;20176;-59
2022/07/22 07:51:37;;;;;;;5.80;5.20;;;24.90;1.00;;;;;;5045824;28;20229;-59
2022/07/22 07:54:03;;;;;;;6.70;5.13;;;26.50;1.00;;;;;;5050888;28;20187;-59
2022/07/22 07:56:29;;;;;;;6.60;5.53;;;26.80;1.00;;;;;;5047112;28;20699;-59
2022/07/22 07:58:54;;;;;;;7.13;6.53;;;27.10;1.00;;;;;;5048916;28;20184;-60
2022/07/22 08:01:20;;;;;;;7.40;6.70;;;27.10;1.00;;;;;;5049301;28;20234;-60
2022/07/22 08:03:45;;;;;;;8.10;7.43;;;26.80;1.00;;;;;;5048939;28;20650;-59
2022/07/22 08:06:11;;;;;;;8.13;7.47;;;26.70;1.00;;;;;;5049314;28;20646;-60
2022/07/22 08:08:37;;;;;;;6.90;6.40;;;26.70;1.00;;;;;;5059539;28;20187;-59
2022/07/22 08:11:05;;;;;;;8.33;7.53;;;26.60;1.00;;;;;;5068060;28;20195;-58
2022/07/22 08:13:31;;;;;;;7.13;6.53;;;27.10;1.00;;;;;;5045846;28;20188;-59
2022/07/22 08:15:56;;;;;;;6.80;6.27;;;27.20;1.00;;;;;;5051869;28;20449;-59
2022/07/22 08:18:22;;;;;;;7.37;6.77;;;27.30;1.00;;;;;;5060520;28;20641;-58
2022/07/22 08:20:48;;;;;;;7.47;6.80;;;27.40;1.00;;;;;;5059873;28;20220;-58
2022/07/22 08:23:14;;;;;;;10.93;6.87;;;27.40;1.00;;;;;;5047608;28;20204;-59
2022/07/22 08:25:39;;;;;;;8.80;8.00;;;27.30;1.00;;;;;;5048106;28;20449;-59
2022/07/22 08:28:05;;;;;;;6.73;6.23;;;27.60;1.00;;;;;;5048682;28;20188;-59
2022/07/22 08:30:31;;;;;;;7.30;6.60;;;27.80;1.00;;;;;;5048846;28;20219;-59
2022/07/22 08:32:57;;;;;;;7.70;6.77;;;28.00;1.00;;;;;;5047613;28;20706;-59
2022/07/22 08:35:23;;;;;;;7.67;7.07;;;28.00;1.00;;;;;;5047090;28;20223;-59
2022/07/22 08:37:48;;;;;;;7.47;6.77;;;28.20;1.00;;;;;;5048247;28;20478;-59
2022/07/22 08:40:16;;;;;;;7.97;7.30;;;28.30;1.00;;;;;;5048843;28;20691;-59
2022/07/22 08:42:43;;;;;;;7.47;6.87;;;28.60;1.00;;;;;;5051311;28;20230;-59
2022/07/22 08:45:10;;;;;;;9.17;8.27;;;28.70;1.00;;;;;;5052315;28;20450;-59
2022/07/22 08:47:37;;;;;;;7.17;6.50;;;29.00;1.00;;;;;;5052106;28;20443;-59
2022/07/22 08:50:03;;;;;;;6.93;6.33;;;29.10;1.00;;;;;;5050710;28;20504;-58
2022/07/22 08:52:29;;;;;;;7.40;6.90;;;29.30;1.00;;;;;;5050820;28;20950;-59
2022/07/22 08:54:55;;;;;;;8.13;7.33;;;29.00;1.00;;;;;;5050864;28;20472;-59
2022/07/22 08:57:21;;;;;;;7.23;6.63;;;28.40;1.00;;;;;;5050167;28;20658;-59
2022/07/22 08:59:53;;;;;;;8.43;7.70;;;28.10;1.00;;;;;;5053732;28;20196;-59
2022/07/22 09:02:20;;;;;;;8.73;8.00;;;28.10;1.00;;;;;;5049601;28;20447;-58
2022/07/22 09:05:07;;;;;;;8.30;7.57;;;27.70;1.00;;;;;;5064906;28;20441;-58
2022/07/22 09:07:38;;;;;;;8.37;7.67;;;28.10;1.00;;;;;;5050964;28;20435;-59
2022/07/22 09:10:08;;;;;;;7.90;7.13;;;28.00;1.00;;;;;;5049690;28;20457;-59
2022/07/22 09:12:34;;;;;;;8.23;7.53;;;28.20;1.00;;;;;;5052081;28;20442;-59
2022/07/22 09:15:02;;;;;;;7.60;6.90;;;27.70;1.00;;;;;;5052402;28;20447;-60
2022/07/22 09:17:36;;;;;;;8.17;7.47;;;27.70;1.00;;;;;;5051837;28;20421;-59
2022/07/22 09:20:05;;;;;;;7.53;6.83;;;27.70;1.00;;;;;;5057090;28;20474;-59
2022/07/22 09:22:32;;;;;;;9.80;8.13;;;27.80;1.00;;;;;;5051738;28;20430;-59
2022/07/22 09:24:59;;;;;;;8.33;7.73;;;28.30;1.00;;;;;;5052035;28;20892;-59
2022/07/22 09:27:26;;;;;;;8.57;7.67;;;28.30;1.00;;;;;;5051661;28;20430;-60
2022/07/22 09:29:53;;;;;;;8.97;8.17;;;28.00;1.00;;;;;;5051274;28;20467;-60
2022/07/22 09:32:19;;;;;;;8.93;8.23;;;28.00;1.00;;;;;;5051400;28;20949;-58
2022/07/22 09:34:45;;;;;;;9.20;8.30;;;27.70;1.00;;;;;;5050819;28;20477;-59
2022/07/22 09:37:11;;;;;;;8.27;7.57;;;27.70;1.00;;;;;;5049558;28;20470;-59
2022/07/22 09:39:37;;;;;;;8.13;7.43;;;27.90;1.00;;;;;;5049873;28;20199;-60
2022/07/22 09:42:05;;;;;;;8.87;8.00;;;28.00;1.00;;;;;;5050528;28;20830;-59
2022/07/22 09:44:31;;;;;;;8.10;7.40;;;28.00;1.00;;;;;;5051451;28;20635;-59
2022/07/22 09:46:57;;;;;;;8.50;7.60;;;28.20;1.00;;;;;;5050198;28;20438;-59
2022/07/22 09:49:41;;;;;;;7.63;6.83;;;28.40;1.00;;;;;;5051081;28;20188;-60
2022/07/22 09:52:06;;;;;;;8.03;7.30;;;28.50;1.00;;;;;;5049261;28;20188;-58
2022/07/22 09:54:32;;;;;;;7.53;6.83;;;28.30;1.00;;;;;;5050784;28;20468;-59
2022/07/22 09:56:58;;;;;;;7.77;7.07;;;28.30;1.00;;;;;;5050327;28;20211;-59
2022/07/22 09:59:24;;;;;;;7.80;7.20;;;28.30;1.00;;;;;;5051246;28;20492;-59
2022/07/22 10:01:54;;;;;;;7.60;7.00;;;28.20;1.00;;;;;;5049688;28;20987;-58
2022/07/22 10:04:21;;;;;;;8.37;7.77;;;28.20;1.00;;;;;;5049189;28;20192;-63
2022/07/22 10:06:48;;;;;;;7.60;6.90;;;28.30;1.00;;;;;;5049725;28;20463;-59
2022/07/22 10:09:16;;;;;;;8.50;7.80;;;28.60;1.00;;;;;;5050841;28;20443;-59
2022/07/22 10:11:46;;;;;;;8.23;7.40;;;28.70;1.00;;;;;;5050514;28;20454;-59
2022/07/22 10:14:16;;;;;;;7.60;7.03;;;29.10;1.00;;;;;;5049653;28;20879;-58
2022/07/22 10:16:43;;;;;;;8.60;7.80;;;29.30;1.00;;;;;;5050082;28;20446;-60
2022/07/22 10:19:10;;;;;;;8.83;8.13;;;29.20;1.00;;;;;;5049945;28;20450;-59
2022/07/22 10:21:36;;;;;;;7.80;7.20;;;28.90;1.00;;;;;;5049713;28;20477;-59
2022/07/22 10:24:13;;;;;;;9.03;7.40;;;28.80;1.00;;;;;;5050085;28;20755;-59
2022/07/22 10:26:58;;;;;;;7.43;6.73;;;28.60;1.00;;;;;;5048959;28;20796;-59
2022/07/22 10:29:29;;;;;;;8.20;7.37;;;29.10;1.00;;;;;;5049974;28;20442;-60
2022/07/22 10:32:16;;;;;;;7.53;6.80;;;29.30;1.00;;;;;;5054670;28;20449;-60
2022/07/22 10:34:43;;;;;;;8.20;7.03;;;29.60;1.00;;;;;;5047664;28;20528;-60
2022/07/22 10:37:33;;;;;;;7.53;6.90;;;29.90;1.00;;;;;;5049506;28;20482;-59
2022/07/22 10:40:16;;;;;;;7.20;6.60;;;30.10;1.00;;;;;;5048847;28;20425;-59
2022/07/22 10:42:59;;;;;;;8.40;7.33;;;29.90;1.00;;;;;;5049695;28;20870;-61
2022/07/22 10:45:26;;;;;;;7.53;6.83;;;29.70;1.00;;;;;;5049972;28;20438;-58
2022/07/22 10:47:53;;;;;;;7.57;6.80;;;29.90;1.00;;;;;;5047825;28;20443;-59
2022/07/22 10:50:37;;;;;;;10.60;7.63;;;30.00;1.00;;;;;;5049818;28;20476;-59
2022/07/22 10:53:21;;;;;;;7.60;6.93;;;30.10;1.00;;;;;;5047417;28;20461;-59
2022/07/22 10:56:07;;;;;;;8.03;7.20;;;30.20;1.00;;;;;;5050068;28;20920;-60
2022/07/22 10:58:35;;;;;;;8.63;6.80;;;30.50;1.00;;;;;;5049821;28;20877;-59
2022/07/22 11:01:07;;;;;;;6.87;6.27;;;30.60;1.00;;;;;;5049341;28;20485;-57
2022/07/22 11:03:34;;;;;;;7.83;7.13;;;30.50;1.00;;;;;;5047514;28;20457;-58
2022/07/22 11:06:21;;;;;;;7.47;6.80;;;30.20;1.00;;;;;;5046758;28;20446;-57
2022/07/22 11:08:51;;;;;;;8.10;7.50;;;29.90;1.00;;;;;;5047990;28;20456;-57
2022/07/22 11:11:17;;;;;;;8.00;7.20;;;29.60;1.00;;;;;;5049491;28;20437;-57
2022/07/22 11:13:44;;;;;;;8.67;7.87;;;29.50;1.00;;;;;;5049096;28;20433;-57
2022/07/22 11:16:14;;;;;;;7.70;7.00;;;29.30;1.00;;;;;;5049170;28;20561;-56
2022/07/22 11:18:52;;;;;;;7.57;6.93;;;28.80;1.00;;;;;;5049252;28;20446;-57
2022/07/22 11:21:21;;;;;;;8.20;7.50;;;28.80;1.00;;;;;;5049004;28;20531;-56
2022/07/22 11:23:48;;;;;;;7.07;6.50;;;28.90;1.00;;;;;;5048784;28;20522;-57
2022/07/22 11:26:16;;;;;;;7.43;6.83;;;29.10;1.00;;;;;;5048116;28;20520;-57
2022/07/22 11:28:45;;;;;;;7.50;6.90;;;29.00;1.00;;;;;;5049180;28;20438;-57
2022/07/22 11:31:15;;;;;;;7.87;7.23;;;28.90;1.00;;;;;;5047234;28;20768;-57
2022/07/22 11:33:40;;;;;;;6.53;6.03;;;28.90;1.00;;;;;;5049614;28;20442;-58
2022/07/22 11:36:09;;;;;;;6.83;6.13;;;28.90;1.00;;;;;;5049348;28;20504;-58
2022/07/22 11:38:46;;;;;;;7.00;6.40;;;29.00;1.00;;;;;;5049403;28;20642;-58
2022/07/22 11:41:15;;;;;;;7.03;6.43;;;29.40;1.00;;;;;;5048767;28;20468;-57
2022/07/22 11:43:43;;;;;;;6.70;6.07;;;29.60;1.00;;;;;;5046921;28;20417;-58
2022/07/22 11:46:09;;;;;;;7.03;6.43;;;29.60;1.00;;;;;;5053272;28;20769;-58
2022/07/22 11:48:35;;;;;;;6.43;5.93;;;29.50;1.00;;;;;;5049079;28;20438;-57
2022/07/22 11:51:01;;;;;;;7.37;6.67;;;29.70;1.00;;;;;;5047611;28;20195;-57
2022/07/22 11:53:27;;;;;;;7.00;6.40;;;29.70;1.00;;;;;;5049453;28;20196;-58
2022/07/22 11:56:08;;;;;;;7.03;6.50;;;29.90;1.00;;;;;;5049141;28;20457;-59
2022/07/22 11:58:39;;;;;;;6.73;6.00;;;31.50;1.00;;;;;;5049603;28;20445;-59
2022/07/22 12:01:11;;;;;;;6.03;5.60;;;29.90;1.00;;;;;;5049786;28;20458;-58
2022/07/22 12:03:38;;;;;;;7.00;6.47;;;29.90;1.00;;;;;;5049805;28;20438;-58
2022/07/22 12:06:10;;;;;;;6.17;5.67;;;28.50;1.00;;;;;;5049595;28;20981;-58
2022/07/22 12:08:41;;;;;;;6.50;5.87;;;29.60;1.00;;;;;;5049783;28;20467;-57
2022/07/22 12:11:08;;;;;;;6.90;5.80;;;29.60;1.00;;;;;;5049612;28;20449;-56
2022/07/22 12:13:34;;;;;;;7.33;5.80;;;29.60;1.00;;;;;;5049742;28;20497;-58
2022/07/22 12:16:15;;;;;;;6.40;5.87;;;29.70;1.00;;;;;;5052190;28;20449;-60
2022/07/22 12:18:41;;;;;;;7.00;6.17;;;29.80;1.00;;;;;;5053445;28;20191;-58
2022/07/22 12:21:07;;;;;;;7.83;6.27;;;30.00;1.00;;;;;;5053495;28;20953;-59
2022/07/22 12:23:33;;;;;;;5.43;5.03;;;29.90;1.00;;;;;;5053262;28;20187;-58
2022/07/22 12:26:02;;;;;;;6.00;5.50;;;29.80;1.00;;;;;;5053451;28;20434;-58
2022/07/22 12:28:28;;;;;;;6.60;5.97;;;29.50;1.00;;;;;;5053119;28;20211;-57
2022/07/22 12:30:55;;;;;;;6.17;5.67;;;29.50;1.00;;;;;;5053345;28;20435;-57
2022/07/22 12:33:23;;;;;;;5.60;5.20;;;29.50;1.00;;;;;;5052933;28;20458;-58
2022/07/22 12:36:18;;;;;;;5.70;5.30;;;29.70;1.00;;;;;;5053110;28;20438;-59
2022/07/22 12:38:44;;;;;;;6.00;5.40;;;29.70;1.00;;;;;;5047803;28;20450;-58
2022/07/22 12:41:27;;;;;;;5.87;5.40;;;29.60;1.00;;;;;;5052657;28;20470;-58
2022/07/22 12:43:53;;;;;;;6.20;5.70;;;29.60;1.00;;;;;;5052867;28;20180;-58
2022/07/22 12:46:20;;;;;;;5.37;4.97;;;29.60;1.00;;;;;;5052984;28;20482;-58
2022/07/22 12:48:54;;;;;;;5.03;4.63;;;29.70;1.00;;;;;;5052916;28;20207;-57
2022/07/22 12:51:20;;;;;;;7.67;5.67;;;30.00;1.00;;;;;;5052764;28;20426;-58